Time;durP1;ratioP1;P1;durP2;ratioP2;P2;SDS_P1;SDS_P2;PMS_P1;PMS_P2;Temp;Humidity;BMP_temperature;BMP_pressure;BME280_temperature;BME280_humidity;BME280_pressure;Samples;Min_cycle;Max_cycle;Signal;HPM_P1;HPM_P2
2022/06/01 00:02:28;;;;;;;;;;;15.20;99.90;;;;;;2621463;46;19946;31
2022/06/01 00:05:03;;;;;;;;;;;15.10;99.90;;;;;;2621576;46;20650;31
2022/06/01 00:07:40;;;;;;;;;;;15.20;99.90;;;;;;2621650;46;21216;31
2022/06/01 00:10:15;;;;;;;;;;;15.20;99.90;;;;;;2603060;54;19934;31
2022/06/01 00:12:50;;;;;;;;;;;15.20;99.90;;;;;;2603201;54;20816;31
2022/06/01 00:15:25;;;;;;;;;;;15.30;99.90;;;;;;2701420;39;21361;31
2022/06/01 00:18:04;;;;;;;;;;;15.20;99.90;;;;;;2603103;54;19981;31
2022/06/01 00:20:38;;;;;;;;;;;15.30;99.90;;;;;;2603106;54;20664;31
2022/06/01 00:23:14;;;;;;;;;;;15.30;99.90;;;;;;2603014;54;19935;31
2022/06/01 00:25:51;;;;;;;;;;;15.30;99.90;;;;;;2621045;46;19941;31
2022/06/01 00:28:26;;;;;;;;;;;15.20;99.90;;;;;;2621332;46;20786;31
2022/06/01 00:31:03;;;;;;;;;;;15.20;99.90;;;;;;2772855;31;20437;31
2022/06/01 00:33:42;;;;;;;;;;;15.20;99.90;;;;;;2602962;54;19935;31
2022/06/01 00:36:18;;;;;;;;;;;15.20;99.90;;;;;;2603009;54;20782;31
2022/06/01 00:38:53;;;;;;;;;;;15.20;99.90;;;;;;2603344;54;19957;31
2022/06/01 00:41:29;;;;;;;;;;;15.20;99.90;;;;;;2603868;54;20730;31
2022/06/01 00:44:05;;;;;;;;;;;15.10;99.90;;;;;;2603699;54;20004;31
2022/06/01 00:46:40;;;;;;;;;;;15.10;99.90;;;;;;2622115;46;19934;31
2022/06/01 00:49:16;;;;;;;;;;;15.00;99.90;;;;;;2702472;39;22272;31
2022/06/01 00:51:52;;;;;;;;;;;15.00;99.90;;;;;;2603914;54;21403;31
2022/06/01 00:54:27;;;;;;;;;;;15.00;99.90;;;;;;2622199;46;19935;31
2022/06/01 00:57:03;;;;;;;;;;;15.00;99.90;;;;;;2603739;54;19935;31
2022/06/01 00:59:39;;;;;;;;;;;14.90;99.90;;;;;;2603486;54;19977;31
2022/06/01 01:02:17;;;;;;;;;;;14.80;99.90;;;;;;2603557;54;20733;31
2022/06/01 01:04:55;;;;;;;;;;;14.70;99.90;;;;;;2603587;54;20682;31
2022/06/01 01:07:33;;;;;;;;;;;14.60;99.90;;;;;;2603647;54;19934;31
2022/06/01 01:10:07;;;;;;;;;;;14.50;99.90;;;;;;2603754;54;19941;31
2022/06/01 01:15:30;;;;;;;;;;;14.30;99.90;;;;;;2603420;54;19934;31
2022/06/01 01:18:09;;;;;;;;;;;14.30;99.90;;;;;;2603372;54;20013;31
2022/06/01 01:20:46;;;;;;;;;;;14.20;99.90;;;;;;2602675;54;19958;31
2022/06/01 01:23:24;;;;;;;;;;;14.20;99.90;;;;;;2602878;54;19942;31
2022/06/01 01:26:01;;;;;;;;;;;14.20;99.90;;;;;;2614538;46;20856;31
2022/06/01 01:28:39;;;;;;;;;;;14.30;99.90;;;;;;2602291;54;19949;31
2022/06/01 01:31:13;;;;;;;;;;;14.20;99.90;;;;;;2602745;54;19942;31
2022/06/01 01:33:49;;;;;;;;;;;14.30;99.90;;;;;;2622113;46;20769;31
2022/06/01 01:36:32;;;;;;;;;;;14.30;99.90;;;;;;2622063;46;19946;31
2022/06/01 01:39:09;;;;;;;;;;;14.30;99.90;;;;;;2603424;54;19943;31
2022/06/01 01:41:43;;;;;;;;;;;14.30;99.90;;;;;;2603810;54;20824;31
2022/06/01 01:44:21;;;;;;;;;;;14.30;99.90;;;;;;2602809;54;20767;31
2022/06/01 01:46:58;;;;;;;;;;;14.30;99.90;;;;;;2602775;54;19942;31
2022/06/01 01:49:33;;;;;;;;;;;14.30;99.90;;;;;;2619406;46;20524;31
2022/06/01 01:52:11;;;;;;;;;;;14.20;99.90;;;;;;2602801;54;19941;31
2022/06/01 01:54:48;;;;;;;;;;;14.30;99.90;;;;;;2603272;54;19942;31
2022/06/01 01:57:27;;;;;;;;;;;14.30;99.90;;;;;;2603571;54;19935;31
2022/06/01 02:00:10;;;;;;;;;;;14.30;99.90;;;;;;2622225;46;20772;31
2022/06/01 02:02:46;;;;;;;;;;;14.30;99.90;;;;;;2602750;54;20190;31
2022/06/01 02:08:14;;;;;;;;;;;14.30;99.90;;;;;;2603845;54;19941;31
2022/06/01 02:13:32;;;;;;;;;;;14.30;99.90;;;;;;2621651;46;20665;31
2022/06/01 02:16:10;;;;;;;;;;;14.20;99.90;;;;;;2603651;54;19941;31
2022/06/01 02:18:45;;;;;;;;;;;14.30;99.90;;;;;;2622219;46;20660;31
2022/06/01 02:21:20;;;;;;;;;;;14.30;99.90;;;;;;2603415;54;19934;31
2022/06/01 02:23:58;;;;;;;;;;;14.30;99.90;;;;;;2603538;54;20741;31
2022/06/01 02:26:37;;;;;;;;;;;14.20;99.90;;;;;;2602764;54;20801;31
2022/06/01 02:29:12;;;;;;;;;;;14.20;99.90;;;;;;2621966;46;20815;31
2022/06/01 02:31:50;;;;;;;;;;;14.30;99.90;;;;;;2602582;54;20704;31
2022/06/01 02:34:24;;;;;;;;;;;14.30;99.90;;;;;;2602798;54;21040;31
2022/06/01 02:37:02;;;;;;;;;;;14.20;99.90;;;;;;2603574;54;19941;31
2022/06/01 02:39:40;;;;;;;;;;;14.20;99.90;;;;;;2603339;54;20656;31
2022/06/01 02:42:29;;;;;;;;;;;14.20;99.90;;;;;;2622205;46;19957;31
2022/06/01 02:45:05;;;;;;;;;;;14.20;99.90;;;;;;2603492;54;19942;31
2022/06/01 02:47:43;;;;;;;;;;;14.20;99.90;;;;;;2621712;46;20761;31
2022/06/01 02:50:21;;;;;;;;;;;14.20;99.90;;;;;;2621733;46;19942;31
2022/06/01 02:52:58;;;;;;;;;;;14.20;99.90;;;;;;2603159;54;19934;31
2022/06/01 02:55:37;;;;;;;;;;;14.20;99.90;;;;;;2603442;54;19961;31
2022/06/01 02:58:12;;;;;;;;;;;14.20;99.90;;;;;;2603331;54;19941;31
2022/06/01 03:00:49;;;;;;;;;;;14.20;99.90;;;;;;2603294;54;19941;31
2022/06/01 03:03:23;;;;;;;;;;;14.10;99.90;;;;;;2613152;46;19935;31
2022/06/01 03:06:00;;;;;;;;;;;14.10;99.90;;;;;;2621267;46;20736;31
2022/06/01 03:08:39;;;;;;;;;;;14.10;99.90;;;;;;2603489;54;19931;31
2022/06/01 03:11:13;;;;;;;;;;;14.10;99.90;;;;;;2603306;54;20017;31
2022/06/01 03:19:46;;;;;;;;;;;14.10;99.90;;;;;;2601786;54;19986;31
2022/06/01 03:22:20;;;;;;;;;;;14.10;99.90;;;;;;2620959;46;19942;31
2022/06/01 03:24:59;;;;;;;;;;;14.10;99.90;;;;;;2602028;54;19942;31
2022/06/01 03:27:38;;;;;;;;;;;14.00;99.90;;;;;;2615749;46;20795;31
2022/06/01 03:30:15;;;;;;;;;;;14.00;99.90;;;;;;2621413;46;20851;31
2022/06/01 03:32:49;;;;;;;;;;;13.90;99.90;;;;;;2602915;54;20801;31
2022/06/01 03:35:27;;;;;;;;;;;13.90;99.90;;;;;;2621533;46;19985;31
2022/06/01 03:38:04;;;;;;;;;;;13.90;99.90;;;;;;2621891;46;20739;31
2022/06/01 03:40:49;;;;;;;;;;;13.90;99.90;;;;;;2603020;54;20319;31
2022/06/01 03:43:24;;;;;;;;;;;14.00;99.90;;;;;;2602900;54;20322;31
2022/06/01 03:45:56;;;;;;;;;;;14.20;99.90;;;;;;2621775;46;19935;31
2022/06/01 03:48:33;;;;;;;;;;;14.40;99.90;;;;;;2603125;54;20757;31
2022/06/01 03:51:09;;;;;;;;;;;14.60;99.90;;;;;;2602972;54;20738;31
2022/06/01 03:53:44;;;;;;;;;;;14.80;99.90;;;;;;2603026;54;20790;31
2022/06/01 03:56:27;;;;;;;;;;;15.00;99.90;;;;;;2670183;39;21059;31
2022/06/01 03:59:06;;;;;;;;;;;15.20;99.90;;;;;;2621442;46;20307;31
2022/06/01 04:01:40;;;;;;;;;;;15.40;99.90;;;;;;2621522;46;20734;31
2022/06/01 04:04:14;;;;;;;;;;;15.60;99.90;;;;;;2621050;46;19947;31
2022/06/01 04:06:48;;;;;;;;;;;15.80;99.90;;;;;;2602758;54;20690;31
2022/06/01 04:09:23;;;;;;;;;;;15.90;99.90;;;;;;2603395;54;19935;31
2022/06/01 04:12:00;;;;;;;;;;;16.10;99.90;;;;;;2603069;54;20725;31
2022/06/01 04:14:37;;;;;;;;;;;16.30;99.90;;;;;;2602745;54;22128;31
2022/06/01 04:17:16;;;;;;;;;;;16.50;99.90;;;;;;2621850;46;21149;31
2022/06/01 04:19:54;;;;;;;;;;;16.60;99.90;;;;;;2603235;54;19956;31
2022/06/01 04:22:35;;;;;;;;;;;16.70;99.90;;;;;;2602855;54;19934;31
2022/06/01 04:25:11;;;;;;;;;;;16.80;99.90;;;;;;2602860;54;21119;31
2022/06/01 04:27:50;;;;;;;;;;;17.00;99.90;;;;;;2603178;54;20767;31
2022/06/01 04:30:31;;;;;;;;;;;17.20;99.90;;;;;;2621440;46;20330;31
2022/06/01 04:33:03;;;;;;;;;;;17.30;99.90;;;;;;2602920;54;22102;31
2022/06/01 04:35:41;;;;;;;;;;;17.50;99.90;;;;;;2620851;46;19946;31
2022/06/01 04:38:18;;;;;;;;;;;17.70;99.90;;;;;;2603202;54;20732;31
2022/06/01 04:40:53;;;;;;;;;;;17.80;99.90;;;;;;2602882;54;20668;31
2022/06/01 04:43:31;;;;;;;;;;;18.00;99.90;;;;;;2602817;54;19993;31
2022/06/01 04:46:06;;;;;;;;;;;18.10;99.90;;;;;;2639443;39;21158;31
2022/06/01 04:48:42;;;;;;;;;;;18.40;99.90;;;;;;2602657;54;19989;31
2022/06/01 04:51:18;;;;;;;;;;;18.50;99.90;;;;;;2602834;54;19935;31
2022/06/01 04:53:52;;;;;;;;;;;18.70;99.90;;;;;;2602107;54;21634;31
2022/06/01 04:56:29;;;;;;;;;;;18.90;99.90;;;;;;2620465;47;20769;31
2022/06/01 04:59:07;;;;;;;;;;;19.00;99.90;;;;;;2621521;47;20860;31
2022/06/01 05:01:43;;;;;;;;;;;19.00;99.90;;;;;;2602715;54;20327;31
2022/06/01 05:04:17;;;;;;;;;;;19.00;99.90;;;;;;2621597;47;19935;31
2022/06/01 05:06:51;;;;;;;;;;;19.00;99.90;;;;;;2621525;47;19935;31
2022/06/01 05:09:25;;;;;;;;;;;19.10;99.90;;;;;;2701202;39;20234;31
2022/06/01 05:11:59;;;;;;;;;;;19.20;99.90;;;;;;2621012;47;19935;31
2022/06/01 05:14:38;;;;;;;;;;;19.30;99.90;;;;;;2621287;47;19957;31
2022/06/01 05:17:12;;;;;;;;;;;19.40;99.90;;;;;;2602768;54;20725;31
2022/06/01 05:19:50;;;;;;;;;;;19.60;99.90;;;;;;2602887;54;19934;31
2022/06/01 05:22:25;;;;;;;;;;;19.70;99.90;;;;;;2602959;54;20709;31
2022/06/01 05:24:59;;;;;;;;;;;19.90;99.90;;;;;;2602840;54;20818;31
2022/06/01 05:27:37;;;;;;;;;;;20.10;99.90;;;;;;2621726;46;19942;31
2022/06/01 05:30:17;;;;;;;;;;;20.30;99.90;;;;;;2603450;54;19942;31
2022/06/01 05:32:52;;;;;;;;;;;20.40;99.90;;;;;;2621860;46;19942;31
2022/06/01 05:35:24;;;;;;;;;;;20.60;99.90;;;;;;2603725;54;22177;31
2022/06/01 05:38:03;;;;;;;;;;;20.70;99.90;;;;;;2603683;54;19985;31
2022/06/01 05:40:36;;;;;;;;;;;20.80;99.90;;;;;;2701959;39;20223;31
2022/06/01 05:43:13;;;;;;;;;;;20.90;99.90;;;;;;2720563;39;20234;31
2022/06/01 05:45:53;;;;;;;;;;;21.10;99.90;;;;;;2622113;46;19935;31
2022/06/01 05:48:28;;;;;;;;;;;21.20;99.90;;;;;;2603427;54;19934;31
2022/06/01 05:51:04;;;;;;;;;;;21.40;99.90;;;;;;2603436;54;20768;31
2022/06/01 05:53:39;;;;;;;;;;;21.60;99.90;;;;;;2622284;46;20659;31
2022/06/01 05:56:14;;;;;;;;;;;21.80;99.90;;;;;;2603655;54;20025;31
2022/06/01 05:58:50;;;;;;;;;;;21.90;99.90;;;;;;2622297;46;20771;31
2022/06/01 06:01:28;;;;;;;;;;;22.10;99.90;;;;;;2701944;39;20449;31
2022/06/01 06:04:03;;;;;;;;;;;22.10;99.90;;;;;;2621966;46;19941;31
2022/06/01 06:06:37;;;;;;;;;;;22.10;99.90;;;;;;2621133;46;20382;31
2022/06/01 06:09:14;;;;;;;;;;;22.20;99.90;;;;;;2603539;54;19946;31
2022/06/01 06:11:49;;;;;;;;;;;22.30;99.90;;;;;;2603657;54;19934;31
2022/06/01 06:14:24;;;;;;;;;;;22.40;99.90;;;;;;2603520;54;19934;31
2022/06/01 06:17:00;;;;;;;;;;;22.50;99.90;;;;;;2622020;46;20335;31
2022/06/01 06:19:38;;;;;;;;;;;22.60;99.90;;;;;;2603343;54;20656;31
2022/06/01 06:22:11;;;;;;;;;;;22.70;99.90;;;;;;2701835;39;20479;31
2022/06/01 06:24:46;;;;;;;;;;;22.80;99.90;;;;;;2603305;54;19934;31
2022/06/01 06:27:19;;;;;;;;;;;23.10;99.90;;;;;;2720210;39;22423;31
2022/06/01 06:29:54;;;;;;;;;;;23.30;99.90;;;;;;2603308;54;19935;31
2022/06/01 06:32:33;;;;;;;;;;;23.40;99.90;;;;;;2621696;46;20698;31
2022/06/01 06:35:09;;;;;;;;;;;23.50;99.90;;;;;;2603588;54;20813;31
2022/06/01 06:37:44;;;;;;;;;;;23.50;99.90;;;;;;2603206;54;19954;31
2022/06/01 06:40:23;;;;;;;;;;;23.40;99.90;;;;;;2603297;54;20782;31
2022/06/01 06:42:59;;;;;;;;;;;23.50;99.90;;;;;;2621989;46;20628;31
2022/06/01 06:45:33;;;;;;;;;;;23.70;99.90;;;;;;2720403;39;20477;31
2022/06/01 06:48:12;;;;;;;;;;;23.70;99.90;;;;;;2619363;46;20744;31
2022/06/01 06:50:47;;;;;;;;;;;23.70;99.90;;;;;;2603423;54;19989;31
2022/06/01 06:53:31;;;;;;;;;;;23.70;99.90;;;;;;2607569;46;19934;31
2022/06/01 06:56:06;;;;;;;;;;;23.50;99.90;;;;;;2603374;54;19941;31
2022/06/01 06:58:41;;;;;;;;;;;23.50;99.90;;;;;;2720329;39;20532;31
2022/06/01 07:01:16;;;;;;;;;;;23.70;99.90;;;;;;2602811;54;20806;31
2022/06/01 07:03:54;;;;;;;;;;;23.80;99.90;;;;;;2621900;46;19935;31
2022/06/01 07:06:29;;;;;;;;;;;23.90;99.90;;;;;;2701908;39;20417;31
2022/06/01 07:09:06;;;;;;;;;;;24.00;99.90;;;;;;2621258;46;19935;31
2022/06/01 07:11:40;;;;;;;;;;;24.00;99.90;;;;;;2603276;54;20532;31
2022/06/01 07:14:16;;;;;;;;;;;24.00;99.90;;;;;;2603232;54;20010;31
2022/06/01 07:16:52;;;;;;;;;;;24.00;99.90;;;;;;2621943;46;20777;31
2022/06/01 07:19:33;;;;;;;;;;;24.00;99.90;;;;;;2603004;54;20888;31
2022/06/01 07:22:09;;;;;;;;;;;24.00;99.90;;;;;;2602960;54;20021;31
2022/06/01 07:24:44;;;;;;;;;;;24.00;99.90;;;;;;2621791;46;20767;31
2022/06/01 07:27:19;;;;;;;;;;;23.80;99.90;;;;;;2602901;54;19991;31
2022/06/01 07:29:54;;;;;;;;;;;23.80;99.90;;;;;;2602558;54;19935;31
2022/06/01 07:32:28;;;;;;;;;;;24.00;99.90;;;;;;2621466;46;19934;31
2022/06/01 07:35:06;;;;;;;;;;;24.30;99.90;;;;;;2621803;46;20736;31
2022/06/01 07:43:17;;;;;;;;;;;24.70;99.90;;;;;;2621817;46;20814;31
2022/06/01 07:45:56;;;;;;;;;;;24.50;99.90;;;;;;2603158;54;20796;31
2022/06/01 07:48:34;;;;;;;;;;;24.30;99.90;;;;;;2621658;46;20500;31
2022/06/01 10:57:00;;;;;;;;;;;25.00;83.90;;;;;;2400798;53;50726;31
2022/06/01 10:59:46;;;;;;;2.42;1.00;;;24.60;79.20;;;;;;2589038;54;20779;31
2022/06/01 11:15:11;;;;;;;1.90;1.25;;;25.10;81.30;;;;;;2589929;54;20032;31
2022/06/01 11:18:01;;;;;;;1.95;1.00;;;25.10;81.80;;;;;;2706841;38;20453;31
2022/06/01 11:21:00;;;;;;;1.27;0.83;;;25.30;82.50;;;;;;2608792;46;20046;31
2022/06/01 11:24:03;;;;;;;1.42;1.13;;;25.60;81.30;;;;;;2609032;46;20886;31
2022/06/01 11:27:06;;;;;;;2.65;1.25;;;25.60;81.00;;;;;;2590253;54;20858;31
2022/06/01 11:29:53;;;;;;;2.63;0.80;;;25.60;82.60;;;;;;2608587;46;20057;31
2022/06/01 11:32:40;;;;;;;1.88;0.93;;;25.40;81.00;;;;;;2590295;54;20062;31
2022/06/01 11:35:28;;;;;;;1.70;1.00;;;25.60;81.70;;;;;;2590079;54;20077;31
2022/06/01 11:41:14;;;;;;;2.70;1.00;;;25.60;79.80;;;;;;2590256;54;20045;31
2022/06/01 11:44:20;;;;;;;4.45;1.05;;;25.40;79.60;;;;;;2590371;54;20880;31
2022/06/01 11:46:58;;;;;;;3.65;0.82;;;25.10;80.30;;;;;;2609014;46;21931;31
2022/06/01 11:49:38;;;;;;;2.95;1.00;;;25.10;80.20;;;;;;2590280;54;20962;31
2022/06/01 11:52:32;;;;;;;2.83;1.00;;;24.90;78.40;;;;;;2590412;54;20022;31
2022/06/01 15:23:30;;;;;;;0.80;0.60;;;22.40;85.50;;;;;;2584924;54;20069;31
2022/06/01 15:45:30;;;;;;;2.85;0.80;;;22.30;84.40;;;;;;2586635;54;21116;31
2022/06/01 18:11:29;;;;;;;16.35;2.15;;;20.80;92.80;;;;;;2586037;54;20890;31
2022/06/01 18:17:43;;;;;;;5.30;1.60;;;20.70;90.70;;;;;;2585933;54;20077;31
2022/06/01 18:20:25;;;;;;;;;;;20.70;90.20;;;;;;2585779;54;20906;31
2022/06/01 18:23:49;;;;;;;5.97;1.60;;;20.60;90.20;;;;;;2604449;46;20045;31
2022/06/01 18:29:16;;;;;;;4.40;1.70;;;20.50;90.10;;;;;;2585259;54;20038;31
2022/06/01 18:31:59;;;;;;;2.90;1.10;;;20.40;90.40;;;;;;2585814;54;20027;31
2022/06/01 18:37:49;;;;;;;5.47;1.70;;;20.20;90.70;;;;;;2585437;54;20022;31
2022/06/01 18:40:29;;;;;;;5.00;1.90;;;20.00;91.50;;;;;;2586304;54;20050;31
2022/06/01 18:43:13;;;;;;;3.07;1.33;;;19.80;92.10;;;;;;2586191;54;20023;31
2022/06/01 18:48:41;;;;;;;4.65;1.58;;;19.30;93.20;;;;;;2586210;54;20985;31
2022/06/01 18:51:25;;;;;;;6.00;1.45;;;19.10;93.80;;;;;;2586183;54;20078;31
2022/06/01 18:54:02;;;;;;;3.60;1.33;;;19.00;94.10;;;;;;2585803;54;20842;31
2022/06/01 18:56:39;;;;;;;2.53;1.52;;;18.80;94.50;;;;;;2604495;47;20037;31
2022/06/01 19:02:32;;;;;;;7.95;1.58;;;18.60;95.40;;;;;;2604747;47;20763;31
2022/06/01 19:05:18;;;;;;;4.28;0.98;;;18.50;96.00;;;;;;2594617;47;20031;31
2022/06/01 19:10:42;;;;;;;2.58;1.40;;;18.30;96.80;;;;;;2586880;54;20834;31
2022/06/01 19:13:20;;;;;;;4.63;1.17;;;18.20;97.50;;;;;;2586701;54;20901;31
2022/06/01 19:15:59;;;;;;;4.05;1.30;;;18.20;98.30;;;;;;2586595;54;20026;31
2022/06/01 19:18:40;;;;;;;1.60;1.20;;;18.10;99.50;;;;;;2586947;54;20863;31
2022/06/01 19:21:24;;;;;;;2.00;1.00;;;18.10;99.90;;;;;;2586735;54;20031;31
2022/06/01 19:24:03;;;;;;;5.83;1.20;;;18.00;99.90;;;;;;2586577;54;20569;31
2022/06/01 19:27:19;;;;;;;3.10;1.00;;;18.00;99.90;;;;;;2586517;54;20274;31
2022/06/01 19:30:48;;;;;;;2.85;1.00;;;18.00;99.90;;;;;;2586699;54;20027;31
2022/06/01 19:44:45;;;;;;;4.85;2.25;;;17.80;99.90;;;;;;2586827;54;20026;31
2022/06/01 19:47:24;;;;;;;3.67;2.38;;;17.80;99.90;;;;;;2586804;54;20860;31
2022/06/01 19:50:01;;;;;;;3.37;1.80;;;17.70;99.90;;;;;;2586879;54;20060;31
2022/06/01 19:52:36;;;;;;;4.30;1.85;;;17.60;99.90;;;;;;2585763;54;20042;31
2022/06/01 19:55:15;;;;;;;6.87;2.27;;;17.50;99.90;;;;;;2585797;54;20925;31
2022/06/01 19:57:53;;;;;;;3.63;2.40;;;17.40;99.90;;;;;;2586065;54;20907;31
2022/06/01 20:00:35;;;;;;;4.50;2.00;;;17.40;99.90;;;;;;2586866;54;20046;31
2022/06/01 20:03:11;;;;;;;7.35;2.35;;;17.30;99.90;;;;;;2586809;54;20106;31
2022/06/01 20:09:04;;;;;;;4.50;1.90;;;17.30;99.90;;;;;;2605449;46;20736;31
2022/06/01 20:14:32;;;;;;;7.47;2.23;;;17.20;99.90;;;;;;2586542;54;20030;31
2022/06/01 20:17:13;;;;;;;4.15;1.63;;;17.10;99.90;;;;;;2604760;46;20951;31
2022/06/01 20:20:40;;;;;;;5.88;1.80;;;17.00;99.90;;;;;;2604540;46;19935;31
2022/06/01 20:26:18;;;;;;;3.17;2.00;;;16.80;99.90;;;;;;2703041;39;20389;31
2022/06/01 20:28:58;;;;;;;7.33;1.80;;;16.70;99.90;;;;;;2586735;54;20792;31
2022/06/01 20:31:33;;;;;;;3.60;1.92;;;16.60;99.90;;;;;;2586748;54;20104;31
2022/06/01 20:34:09;;;;;;;4.47;1.88;;;16.50;99.90;;;;;;2596089;46;20030;31
2022/06/01 20:36:47;;;;;;;3.53;1.73;;;16.40;99.90;;;;;;2586035;54;20026;31
2022/06/01 20:39:26;;;;;;;5.80;2.30;;;16.40;99.90;;;;;;2585719;54;20053;31
2022/06/01 20:42:13;;;;;;;4.70;2.00;;;16.30;99.90;;;;;;2604518;46;20242;31
2022/06/01 20:44:54;;;;;;;3.60;1.70;;;16.30;99.90;;;;;;2586477;54;20029;31
2022/06/01 20:47:35;;;;;;;5.00;1.90;;;16.30;99.90;;;;;;2586476;54;20054;31
2022/06/01 20:50:11;;;;;;;7.15;3.70;;;16.30;99.90;;;;;;2586905;54;20777;31
2022/06/01 20:52:53;;;;;;;5.15;2.58;;;16.10;99.90;;;;;;2684125;39;20452;31
2022/06/01 20:55:28;;;;;;;5.63;2.33;;;16.10;99.90;;;;;;2585830;54;20919;31
2022/06/01 20:58:08;;;;;;;4.22;2.55;;;16.10;99.90;;;;;;2586672;54;20890;31
2022/06/01 21:00:47;;;;;;;6.70;2.67;;;16.00;99.90;;;;;;2605091;46;20467;31
2022/06/01 21:09:04;;;;;;;5.03;3.00;;;15.90;99.90;;;;;;2586455;54;20837;31
2022/06/01 21:11:46;;;;;;;5.40;3.20;;;15.90;99.90;;;;;;2604904;46;20031;31
2022/06/01 21:14:30;;;;;;;5.28;2.92;;;15.90;99.90;;;;;;2586571;54;19934;31
2022/06/01 21:17:18;;;;;;;3.70;2.20;;;15.70;99.90;;;;;;2585741;54;20034;31
2022/06/01 21:19:56;;;;;;;4.07;2.60;;;15.70;99.90;;;;;;2586556;54;20912;31
2022/06/01 21:22:32;;;;;;;3.63;2.58;;;15.60;99.90;;;;;;2586589;54;20026;31
2022/06/01 21:25:08;;;;;;;;;;;15.60;99.90;;;;;;2586995;54;20751;31
2022/06/01 21:27:47;;;;;;;3.67;2.37;;;15.50;99.90;;;;;;2605032;46;20387;31
2022/06/01 21:30:36;;;;;;;4.00;2.75;;;15.40;99.90;;;;;;2586242;54;20052;31
2022/06/01 21:33:24;;;;;;;5.40;3.05;;;15.30;99.90;;;;;;2684175;39;20589;31
2022/06/01 21:36:21;;;;;;;3.33;2.40;;;15.10;99.90;;;;;;2586446;54;20946;31
2022/06/01 21:39:00;;;;;;;3.08;2.70;;;15.00;99.90;;;;;;2586425;54;20064;31
2022/06/01 21:41:36;;;;;;;5.40;2.80;;;14.90;99.90;;;;;;2586422;54;20845;31
2022/06/01 21:47:17;;;;;;;4.78;3.10;;;14.80;99.90;;;;;;2585794;54;20030;31
2022/06/01 21:52:50;;;;;;;7.25;3.30;;;14.60;99.90;;;;;;2585502;54;20917;31
2022/06/01 21:55:34;;;;;;;4.45;2.60;;;14.50;99.90;;;;;;2586354;54;20058;31
2022/06/01 22:01:11;;;;;;;4.25;2.63;;;14.60;99.90;;;;;;2585543;54;20890;31
2022/06/01 22:03:57;;;;;;;4.20;2.85;;;14.60;99.90;;;;;;2585624;54;20932;31
2022/06/01 22:06:31;;;;;;;3.90;2.80;;;14.60;99.90;;;;;;2586288;54;20077;31
2022/06/01 22:12:16;;;;;;;3.15;2.70;;;14.60;99.90;;;;;;2586377;54;20077;31
2022/06/01 22:14:56;;;;;;;8.20;3.60;;;14.60;99.90;;;;;;2586380;54;20806;31
2022/06/01 22:17:32;;;;;;;4.15;3.15;;;14.60;99.90;;;;;;2586269;54;20880;31
2022/06/01 22:20:11;;;;;;;5.93;4.00;;;14.60;99.90;;;;;;2586600;54;20749;31
2022/06/01 22:22:53;;;;;;;4.50;3.50;;;14.50;99.90;;;;;;2586249;54;20033;31
2022/06/01 22:25:33;;;;;;;7.40;4.55;;;14.50;99.90;;;;;;2586466;54;20830;31
2022/06/01 22:28:05;;;;;;;5.97;4.40;;;14.50;99.90;;;;;;2586344;54;20932;31
2022/06/01 22:30:42;;;;;;;8.40;4.75;;;14.50;99.90;;;;;;2586288;54;20034;31
2022/06/01 22:33:17;;;;;;;6.25;4.10;;;14.50;99.90;;;;;;2585264;54;20064;31
2022/06/01 22:38:47;;;;;;;8.70;4.57;;;14.30;99.90;;;;;;2585758;54;20313;31
2022/06/01 22:44:17;;;;;;;5.75;4.15;;;14.30;99.90;;;;;;2604763;46;20879;31
2022/06/01 22:46:55;;;;;;;5.97;4.10;;;14.30;99.90;;;;;;2586349;54;20844;31
2022/06/01 22:49:33;;;;;;;5.13;3.40;;;14.20;99.90;;;;;;2585701;54;20945;31
2022/06/01 22:52:11;;;;;;;10.65;3.75;;;14.20;99.90;;;;;;2586303;54;20893;31
2022/06/01 23:00:31;;;;;;;6.45;3.65;;;14.00;99.90;;;;;;2585670;54;20845;31
2022/06/01 23:06:17;;;;;;;6.50;3.28;;;13.90;99.90;;;;;;2629787;54;20043;-93
2022/06/01 23:12:00;;;;;;;4.38;3.13;;;13.80;99.90;;;;;;2584964;54;20132;31
2022/06/01 23:17:01;;;;;;;7.97;3.50;;;13.70;99.90;;;;;;2584979;54;20821;31
2022/06/01 23:19:41;;;;;;;6.00;3.00;;;13.60;99.90;;;;;;2585073;54;21262;31
2022/06/01 23:22:20;;;;;;;4.95;3.40;;;13.50;99.90;;;;;;2585374;54;20860;31
2022/06/01 23:25:02;;;;;;;4.60;2.92;;;13.50;99.90;;;;;;2585985;54;20141;31
2022/06/01 23:27:38;;;;;;;5.05;3.10;;;13.50;99.90;;;;;;2586045;54;20898;31
2022/06/01 23:30:16;;;;;;;4.07;2.92;;;13.50;99.90;;;;;;2604695;47;20839;31
2022/06/01 23:33:20;;;;;;;4.93;3.83;;;13.50;99.90;;;;;;2585947;54;20037;31
2022/06/01 23:36:06;;;;;;;5.63;4.20;;;13.50;99.90;;;;;;2585761;54;20879;31
2022/06/01 23:39:09;;;;;;;6.97;3.28;;;13.50;99.90;;;;;;2585803;54;20154;31
2022/06/01 23:41:54;;;;;;;6.00;4.35;;;13.40;99.90;;;;;;2586052;54;20889;31
2022/06/01 23:44:40;;;;;;;5.90;4.40;;;13.40;99.90;;;;;;2585604;54;20982;31
2022/06/01 23:50:34;;;;;;;4.17;3.30;;;13.30;99.90;;;;;;2585160;54;20889;31
2022/06/01 23:53:31;;;;;;;5.00;3.28;;;13.30;99.90;;;;;;2586273;54;20863;31
